Time;durP1;ratioP1;P1;durP2;ratioP2;P2;SDS_P1;SDS_P2;PMS_P1;PMS_P2;Temp;Humidity;BMP_temperature;BMP_pressure;BME280_temperature;BME280_humidity;BME280_pressure;Samples;Min_cycle;Max_cycle;Signal;HPM_P1;HPM_P2
2022/04/11 00:00:40;;;;;;;5.40;3.67;;;8.90;95.70;;;9.47;48.80;101567.25;4809520;29;97598;-63
2022/04/11 00:03:05;;;;;;;4.50;3.53;;;8.90;95.70;;;9.43;48.69;101564.69;4787613;29;99035;-70
2022/04/11 00:05:31;;;;;;;7.63;3.80;;;9.00;95.70;;;9.32;49.35;101554.31;4807052;29;107646;-64
2022/04/11 00:07:57;;;;;;;6.60;3.77;;;8.90;96.10;;;9.36;49.21;101563.03;4810190;29;97203;-64
2022/04/11 00:10:23;;;;;;;6.23;3.50;;;8.80;96.10;;;9.32;48.65;101562.22;4807545;29;106220;-64
2022/04/11 00:12:49;;;;;;;5.23;3.80;;;8.80;95.90;;;9.35;49.50;101566.56;4811697;29;97718;-65
2022/04/11 00:15:14;;;;;;;6.37;4.07;;;8.80;96.40;;;9.32;49.25;101564.84;4803625;29;99134;-63
2022/04/11 00:17:40;;;;;;;7.33;3.33;;;8.80;96.20;;;9.35;49.57;101561.31;4807313;29;102873;-64
2022/04/11 00:20:07;;;;;;;5.70;3.90;;;8.80;96.20;;;9.34;49.36;101559.56;4805009;29;112557;-69
2022/04/11 00:22:36;;;;;;;4.70;3.67;;;8.80;96.20;;;9.32;49.33;101561.34;4808449;29;97696;-65
2022/04/11 00:25:04;;;;;;;9.40;3.70;;;8.80;96.40;;;9.31;49.30;101549.09;4810443;29;97776;-65
2022/04/11 00:27:30;;;;;;;6.53;4.30;;;8.80;96.20;;;9.29;48.87;101550.88;4803728;29;98007;-63
2022/04/11 00:29:56;;;;;;;7.37;3.87;;;8.80;95.80;;;9.28;49.56;101549.16;4818048;29;97890;-64
2022/04/11 00:32:21;;;;;;;8.83;4.30;;;8.80;96.40;;;9.25;49.85;101543.00;4820383;29;97038;-64
2022/04/11 00:34:47;;;;;;;6.30;3.93;;;8.70;96.60;;;9.20;49.38;101546.63;4819530;29;96922;-65
2022/04/11 00:37:13;;;;;;;6.60;4.57;;;8.70;96.00;;;9.13;49.72;101552.88;4819040;28;97017;-65
2022/04/11 00:39:39;;;;;;;5.60;3.77;;;8.60;96.60;;;9.14;49.66;101541.47;4820702;29;112842;-64
2022/04/11 00:42:10;;;;;;;4.43;3.63;;;8.60;96.30;;;9.11;49.41;101541.47;4828445;28;97444;-70
2022/04/11 00:44:36;;;;;;;6.97;3.80;;;8.70;96.50;;;9.14;49.14;101538.84;4813218;28;97068;-65
2022/04/11 00:47:02;;;;;;;4.53;3.37;;;8.60;96.30;;;9.13;49.68;101539.72;4824968;29;97137;-64
2022/04/11 00:49:28;;;;;;;5.37;3.33;;;8.60;96.60;;;9.12;49.45;101541.50;4817788;29;97708;-65
2022/04/11 00:51:54;;;;;;;6.13;3.43;;;8.60;96.60;;;9.13;49.42;101534.47;4827956;29;116204;-64
2022/04/11 00:54:20;;;;;;;5.70;3.03;;;8.60;96.40;;;9.12;49.24;101533.59;4820166;29;111422;-65
2022/04/11 00:56:47;;;;;;;6.20;3.60;;;8.60;96.40;;;9.10;49.45;101537.97;4822474;29;114821;-64
2022/04/11 00:59:15;;;;;;;5.33;3.30;;;8.60;96.50;;;9.12;49.63;101523.06;4817911;29;97006;-64
2022/04/11 01:01:41;;;;;;;6.10;3.80;;;8.70;96.50;;;9.09;49.71;101533.63;4819570;28;97222;-64
2022/04/11 01:04:23;;;;;;;7.60;3.50;;;8.60;96.70;;;9.09;49.33;101527.47;4816211;29;105367;-67
2022/04/11 01:06:58;;;;;;;4.70;3.30;;;8.60;96.50;;;9.16;49.46;101530.00;4820979;29;97697;-65
2022/04/11 01:09:25;;;;;;;5.13;3.23;;;8.60;96.50;;;9.17;49.07;101521.22;4807214;29;97605;-63
2022/04/11 01:11:52;;;;;;;4.13;3.20;;;8.70;96.40;;;9.19;48.91;101522.06;4806224;29;99719;-64
2022/04/11 01:14:18;;;;;;;6.50;3.10;;;8.70;96.30;;;9.16;49.33;101519.47;4820439;29;96978;-65
2022/04/11 01:16:51;;;;;;;5.77;3.27;;;8.70;96.50;;;9.15;49.26;101520.38;4829142;29;96955;-64
2022/04/11 01:19:18;;;;;;;5.63;3.07;;;8.70;96.30;;;9.24;49.68;101521.97;4821888;29;96713;-65
2022/04/11 01:21:47;;;;;;;5.60;2.80;;;8.70;96.30;;;9.31;49.01;101522.75;4824895;28;97605;-64
2022/04/11 01:24:17;;;;;;;4.03;2.70;;;8.80;96.10;;;9.40;48.52;101517.31;4817469;29;96725;-63
2022/04/11 01:26:44;;;;;;;5.07;3.07;;;8.80;95.90;;;9.44;48.23;101519.91;4823859;29;96990;-65
2022/04/11 01:29:13;;;;;;;4.83;2.80;;;8.90;95.40;;;9.70;49.35;101511.53;4819397;29;97558;-63
2022/04/11 01:31:38;;;;;;;5.60;3.27;;;9.00;94.90;;;9.93;47.96;101507.56;4843224;28;97746;-65
2022/04/11 01:34:06;;;;;;;6.57;3.57;;;9.20;94.30;;;10.05;47.82;101507.34;4823120;29;97215;-65
2022/04/11 01:36:46;;;;;;;5.37;3.73;;;9.30;93.70;;;10.13;46.88;101508.06;4772624;29;96988;-65
2022/04/11 01:39:16;;;;;;;5.63;3.57;;;9.40;93.50;;;10.17;46.61;101500.94;4760726;29;97553;-67
2022/04/11 01:41:41;;;;;;;5.60;3.27;;;9.50;93.60;;;10.18;47.17;101490.38;4805775;29;123285;-66
2022/04/11 01:44:07;;;;;;;6.20;3.57;;;9.50;94.00;;;10.23;46.87;101488.53;4820525;29;97148;-65
2022/04/11 01:46:33;;;;;;;5.20;3.33;;;9.60;93.50;;;10.25;46.68;101489.38;4824641;28;97472;-64
2022/04/11 01:48:59;;;;;;;4.27;3.43;;;9.60;93.50;;;10.23;46.07;101488.53;4820885;29;98959;-66
2022/04/11 01:51:24;;;;;;;5.53;3.07;;;9.60;94.00;;;10.28;47.14;101484.06;4819555;28;107910;-65
2022/04/11 01:53:50;;;;;;;4.67;2.73;;;9.60;94.00;;;10.23;46.42;101485.88;4820020;29;102958;-64
2022/04/11 01:56:16;;;;;;;4.10;2.90;;;9.60;93.90;;;10.16;46.96;101486.91;4820259;28;120592;-64
2022/04/11 01:58:42;;;;;;;4.83;2.90;;;9.50;94.20;;;10.18;47.13;101476.31;4823473;29;116286;-65
2022/04/11 02:01:07;;;;;;;5.47;2.87;;;9.50;94.40;;;10.16;47.21;101486.91;4819338;28;97185;-65
2022/04/11 02:03:33;;;;;;;4.63;3.23;;;9.50;94.40;;;10.12;46.33;101487.84;4818957;29;96559;-66
2022/04/11 02:05:59;;;;;;;4.27;2.97;;;9.50;94.40;;;10.06;46.81;101483.56;4823748;28;97066;-64
2022/04/11 02:08:25;;;;;;;5.77;3.67;;;9.40;94.70;;;10.11;48.23;101480.84;4816949;29;102882;-65
2022/04/11 02:10:50;;;;;;;5.27;2.93;;;9.40;95.20;;;10.16;47.97;101486.91;4824917;28;96830;-65
2022/04/11 02:13:16;;;;;;;5.40;3.13;;;9.50;95.00;;;10.29;48.55;101474.38;4818188;29;117496;-65
2022/04/11 02:15:42;;;;;;;5.50;2.57;;;9.50;94.70;;;10.41;48.15;101469.69;4824877;28;118560;-65
2022/04/11 02:18:08;;;;;;;7.87;3.30;;;9.70;94.50;;;10.52;46.52;101471.22;4820204;29;113813;-66
2022/04/11 02:20:34;;;;;;;6.53;2.57;;;9.80;92.80;;;10.67;47.58;101476.13;4824717;28;97057;-65
2022/04/11 02:23:00;;;;;;;6.33;2.93;;;9.90;93.30;;;10.79;46.41;101465.28;4820829;29;97208;-64
2022/04/11 02:25:34;;;;;;;3.53;2.67;;;10.00;92.80;;;10.93;45.24;101470.25;4801490;29;117495;-65
2022/04/11 02:28:00;;;;;;;4.90;2.70;;;10.20;92.00;;;10.93;44.05;101468.47;4817737;29;97688;-64
2022/04/11 02:30:27;;;;;;;6.70;2.67;;;10.20;91.80;;;11.05;46.72;101469.94;4820667;29;97066;-64
2022/04/11 02:32:54;;;;;;;4.17;2.70;;;10.30;92.30;;;11.10;45.36;101475.09;4825299;28;97097;-65
2022/04/11 02:35:20;;;;;;;3.80;2.90;;;10.30;91.20;;;11.17;45.59;101471.44;4816909;29;97122;-64
2022/04/11 02:37:46;;;;;;;5.53;2.60;;;10.40;91.50;;;11.33;46.08;101467.47;4816075;29;97962;-65
2022/04/11 02:40:13;;;;;;;3.73;2.67;;;10.50;92.70;;;11.38;45.01;101464.72;4816670;29;97862;-64
2022/04/11 02:42:44;;;;;;;6.03;2.37;;;10.60;91.00;;;11.37;45.49;101468.25;4823465;29;97012;-65
2022/04/11 02:45:11;;;;;;;4.60;2.80;;;10.50;91.60;;;11.33;44.45;101473.63;4814555;29;96914;-65
2022/04/11 02:47:37;;;;;;;4.53;2.70;;;10.50;90.90;;;11.37;43.66;101469.13;4830009;29;97653;-65
2022/04/11 02:50:04;;;;;;;4.37;2.60;;;10.50;90.60;;;11.28;43.40;101474.63;4821949;29;97013;-65
2022/04/11 02:52:30;;;;;;;4.50;2.57;;;10.50;91.30;;;11.24;43.98;101473.00;4817809;28;101503;-65
2022/04/11 02:54:56;;;;;;;4.00;2.50;;;10.40;91.60;;;11.14;43.33;101471.47;4812471;29;97246;-65
2022/04/11 02:57:23;;;;;;;5.43;3.10;;;10.40;91.80;;;11.09;44.61;101468.09;4817882;29;97637;-66
2022/04/11 02:59:50;;;;;;;5.00;2.73;;;10.30;92.40;;;10.95;44.04;101466.66;4827249;28;96983;-64
2022/04/11 03:02:16;;;;;;;6.47;3.00;;;10.20;92.00;;;10.84;45.20;101466.03;4824248;29;97266;-64
2022/04/11 03:04:42;;;;;;;4.63;2.70;;;10.10;92.50;;;10.77;45.02;101472.38;4823492;29;97478;-64
2022/04/11 03:07:08;;;;;;;5.53;2.67;;;10.10;92.60;;;10.71;44.55;101472.53;4821282;29;97419;-64
2022/04/11 03:09:34;;;;;;;4.67;2.57;;;10.00;92.50;;;10.60;44.86;101474.56;4821127;28;97219;-65
2022/04/11 03:12:00;;;;;;;5.87;3.03;;;10.00;92.90;;;10.52;44.75;101460.66;4835228;28;99568;-65
2022/04/11 03:14:26;;;;;;;5.33;2.73;;;9.90;92.60;;;10.57;44.90;101467.59;4818313;29;98382;-66
2022/04/11 03:16:51;;;;;;;4.60;2.73;;;9.90;92.60;;;10.55;45.31;101466.72;4821459;29;99370;-65
2022/04/11 03:19:18;;;;;;;2.77;2.30;;;9.90;92.90;;;10.69;46.93;101464.63;4822698;29;121183;-65
2022/04/11 03:21:43;;;;;;;3.63;2.43;;;9.90;92.60;;;10.79;45.76;101465.28;4826848;29;97137;-65
2022/04/11 03:24:09;;;;;;;3.43;2.57;;;10.10;92.00;;;10.78;44.83;101466.19;4820032;28;97489;-66
2022/04/11 03:26:35;;;;;;;5.77;2.87;;;10.10;91.10;;;10.80;44.87;101466.16;4834813;28;97378;-65
2022/04/11 03:29:01;;;;;;;5.73;2.87;;;10.10;91.70;;;10.76;45.31;101465.38;4850329;28;122438;-65
2022/04/11 03:31:27;;;;;;;5.07;2.73;;;10.00;91.90;;;10.71;44.26;101467.25;4821337;29;96838;-64
2022/04/11 03:33:54;;;;;;;3.73;2.60;;;10.00;92.10;;;10.53;45.14;101465.03;4826624;29;96811;-65
2022/04/11 03:36:21;;;;;;;6.13;3.07;;;9.90;93.00;;;10.36;45.90;101465.41;4827182;28;96984;-65
2022/04/11 03:38:47;;;;;;;4.37;3.17;;;9.80;93.90;;;10.23;45.86;101459.53;4819860;29;97091;-65
2022/04/11 03:41:13;;;;;;;4.87;3.03;;;9.70;93.80;;;10.14;46.28;101464.97;4822414;29;96712;-65
2022/04/11 03:43:39;;;;;;;5.93;2.77;;;9.60;93.80;;;10.05;46.01;101475.69;4827544;29;97149;-65
2022/04/11 03:46:04;;;;;;;3.97;2.70;;;9.50;93.90;;;10.00;46.80;101456.50;4827318;29;97364;-65
2022/04/11 03:48:30;;;;;;;6.10;3.40;;;9.40;94.10;;;9.96;46.97;101466.19;4822220;29;101337;-66
2022/04/11 03:50:56;;;;;;;5.97;3.27;;;9.40;94.60;;;9.99;47.25;101462.66;4828798;29;97434;-66
2022/04/11 03:53:21;;;;;;;6.27;3.00;;;9.40;94.60;;;10.04;48.08;101458.16;4833920;28;107108;-64
2022/04/11 03:55:47;;;;;;;6.57;2.97;;;9.40;94.60;;;10.06;47.05;101461.63;4826673;29;110595;-65
2022/04/11 03:58:13;;;;;;;5.03;3.00;;;9.40;94.60;;;10.01;47.43;101459.09;4824100;28;97953;-64
2022/04/11 04:00:39;;;;;;;6.43;3.37;;;9.40;94.70;;;9.99;46.67;101460.03;4825078;29;100812;-65
2022/04/11 04:03:10;;;;;;;5.10;3.17;;;9.30;94.30;;;10.01;47.11;101459.09;4823682;28;96898;-66
2022/04/11 04:05:43;;;;;;;4.27;2.97;;;9.40;94.50;;;10.09;48.05;101457.16;4819247;29;100466;-65
2022/04/11 04:08:10;;;;;;;5.57;3.00;;;9.40;94.70;;;10.13;46.79;101450.06;4821277;29;96978;-64
2022/04/11 04:10:36;;;;;;;4.00;2.43;;;9.50;94.30;;;10.18;46.37;101456.09;4827223;29;97362;-66
2022/04/11 04:13:03;;;;;;;4.67;2.53;;;9.50;93.50;;;10.20;45.91;101453.41;4824371;29;97089;-66
2022/04/11 04:15:29;;;;;;;4.07;2.87;;;9.50;92.90;;;10.22;45.57;101451.66;4818689;29;97367;-66
2022/04/11 04:17:56;;;;;;;4.97;3.50;;;9.60;93.00;;;10.20;46.43;101446.38;4828244;28;97120;-64
2022/04/11 04:20:25;;;;;;;5.17;2.80;;;9.50;93.30;;;10.20;45.73;101448.16;4823845;29;97582;-65
2022/04/11 04:22:55;;;;;;;4.47;3.23;;;9.50;93.30;;;10.19;46.42;101447.28;4825872;29;96907;-65
2022/04/11 04:25:21;;;;;;;3.40;2.93;;;9.50;94.10;;;10.22;46.41;101447.25;4816549;29;100420;-65
2022/04/11 04:27:47;;;;;;;8.00;2.90;;;9.50;93.60;;;10.30;47.00;101444.47;4828408;29;98201;-64
2022/04/11 04:30:13;;;;;;;5.07;2.70;;;9.60;93.10;;;10.40;46.84;101441.56;4820405;29;113377;-66
2022/04/11 04:32:40;;;;;;;5.87;2.97;;;9.60;93.20;;;10.47;47.11;101446.72;4828247;29;97160;-64
2022/04/11 04:35:07;;;;;;;4.37;2.90;;;9.70;93.60;;;10.50;47.04;101446.63;4821892;29;97563;-70
2022/04/11 04:37:33;;;;;;;4.90;3.87;;;9.70;93.10;;;10.70;45.19;101440.00;4824832;28;97395;-65
2022/04/11 04:39:59;;;;;;;6.77;2.97;;;9.90;92.80;;;10.77;46.54;101440.72;4815661;29;106882;-64
2022/04/11 04:42:28;;;;;;;5.47;3.27;;;10.00;92.30;;;10.82;43.78;101448.50;4828712;28;97793;-65
2022/04/11 04:44:54;;;;;;;4.20;3.00;;;10.10;91.70;;;10.90;45.70;101452.72;4824089;29;98073;-64
2022/04/11 04:47:21;;;;;;;6.57;2.73;;;10.10;91.70;;;10.99;46.11;101447.22;4822820;28;97273;-65
2022/04/11 04:49:47;;;;;;;4.87;3.10;;;10.20;92.00;;;11.09;45.39;101446.97;4823938;29;96829;-64
2022/04/11 04:52:13;;;;;;;7.70;3.07;;;10.30;91.70;;;11.18;46.12;101446.75;4818541;29;97282;-64
2022/04/11 04:54:39;;;;;;;6.53;2.70;;;10.40;91.90;;;11.24;44.56;101441.28;4823129;29;97624;-64
2022/04/11 04:57:06;;;;;;;4.77;3.07;;;10.40;91.30;;;11.29;45.39;101444.72;4826944;29;116232;-67
2022/04/11 04:59:32;;;;;;;2.33;1.90;;;10.40;91.40;;;11.42;46.27;101454.00;4821264;29;98946;-64
2022/04/11 05:01:58;;;;;;;3.30;2.47;;;10.50;92.90;;;11.48;43.57;101443.31;4821727;29;98292;-64
2022/04/11 05:04:24;;;;;;;6.07;2.80;;;10.70;90.50;;;11.53;43.72;101451.09;4820083;29;97357;-65
2022/04/11 05:06:50;;;;;;;5.50;2.20;;;10.70;90.60;;;11.48;45.06;101445.94;4822812;29;96790;-65
2022/04/11 05:09:17;;;;;;;4.67;3.50;;;10.60;91.10;;;11.42;42.98;101451.38;4813041;29;97668;-65
2022/04/11 05:11:43;;;;;;;4.07;2.90;;;10.60;90.80;;;11.37;43.65;101452.41;4833513;29;97153;-65
2022/04/11 05:14:09;;;;;;;6.20;2.90;;;10.50;91.00;;;11.35;44.86;101444.53;4810656;29;107388;-65
2022/04/11 05:16:35;;;;;;;7.60;3.17;;;10.40;91.40;;;11.34;43.16;101445.44;4818702;29;108026;-65
2022/04/11 05:19:00;;;;;;;6.27;2.70;;;10.50;90.60;;;11.33;45.41;101449.00;4822039;29;115423;-65
2022/04/11 05:21:26;;;;;;;4.07;3.13;;;10.50;91.90;;;11.26;44.78;101453.53;4806939;28;103207;-65
2022/04/11 05:23:52;;;;;;;4.90;3.03;;;10.40;91.40;;;11.29;44.46;101450.84;4820579;29;106965;-65
2022/04/11 05:26:18;;;;;;;5.33;2.77;;;10.40;91.00;;;11.29;43.23;101450.84;4816829;29;103357;-65
2022/04/11 05:28:48;;;;;;;5.87;2.87;;;10.40;91.20;;;11.36;44.13;101451.53;4815270;29;97545;-65
2022/04/11 05:31:15;;;;;;;3.93;2.57;;;10.50;91.30;;;11.44;45.81;101449.59;4821351;29;97162;-65
2022/04/11 05:33:41;;;;;;;5.30;2.60;;;10.50;91.90;;;11.47;44.46;101444.22;4823586;29;97637;-63
2022/04/11 05:36:07;;;;;;;3.93;2.50;;;10.60;91.20;;;11.45;44.97;101450.44;4821743;28;96728;-67
2022/04/11 05:38:33;;;;;;;4.47;2.87;;;10.60;91.50;;;11.46;44.58;101453.03;4825949;28;115367;-65
2022/04/11 05:40:59;;;;;;;7.17;3.17;;;10.60;91.90;;;11.37;43.97;101452.41;4839803;29;97242;-65
2022/04/11 05:43:24;;;;;;;3.77;2.83;;;10.50;91.20;;;11.37;44.78;101444.50;4821521;29;129446;-65
2022/04/11 05:45:50;;;;;;;6.20;2.80;;;10.50;92.20;;;11.37;45.45;101455.06;4824176;29;113894;-64
2022/04/11 05:48:16;;;;;;;3.10;2.57;;;10.50;92.00;;;11.36;44.41;101455.97;4818324;29;121816;-65
2022/04/11 05:50:42;;;;;;;4.63;3.20;;;10.50;91.70;;;11.36;44.33;101459.47;4827131;29;96571;-65
2022/04/11 05:53:08;;;;;;;5.43;2.97;;;10.50;91.50;;;11.35;43.03;101459.50;4819944;29;96727;-65
2022/04/11 05:55:34;;;;;;;6.23;2.93;;;10.50;91.20;;;11.47;45.09;101449.50;4824607;29;105083;-65
2022/04/11 05:57:59;;;;;;;4.87;2.43;;;10.60;92.00;;;11.54;45.34;101448.41;4825652;29;115890;-65
2022/04/11 06:00:26;;;;;;;3.53;2.60;;;10.70;91.40;;;11.67;45.43;101445.44;4821113;29;101512;-65
2022/04/11 06:02:52;;;;;;;4.43;2.73;;;10.80;91.20;;;11.93;44.65;101448.25;4824421;29;97459;-65
2022/04/11 06:05:17;;;;;;;4.37;2.53;;;11.10;91.20;;;11.95;43.76;101441.13;4823745;29;97059;-65
2022/04/11 06:07:43;;;;;;;2.93;1.90;;;11.20;90.30;;;12.11;45.00;101442.41;4824587;29;115564;-65
2022/04/11 06:10:10;;;;;;;3.90;2.20;;;11.30;91.90;;;12.30;43.93;101436.59;4822861;28;113006;-66
2022/04/11 06:12:36;;;;;;;4.40;2.60;;;11.50;91.20;;;12.38;42.04;101440.72;4826092;28;96890;-65
2022/04/11 06:15:04;;;;;;;3.27;2.47;;;11.60;90.30;;;12.48;43.96;101436.03;4820030;29;97658;-65
2022/04/11 06:17:30;;;;;;;4.07;2.40;;;11.70;90.60;;;12.55;43.61;101440.19;4823147;29;97207;-65
2022/04/11 06:19:57;;;;;;;6.07;2.80;;;11.70;90.50;;;12.49;42.33;101435.09;4826217;29;97566;-65
2022/04/11 06:22:25;;;;;;;3.67;2.37;;;11.70;89.50;;;12.51;43.13;101441.22;4824677;28;98835;-65
2022/04/11 06:25:01;;;;;;;3.50;2.27;;;11.70;89.90;;;12.60;43.48;101435.66;4823588;28;100791;-65
2022/04/11 06:27:27;;;;;;;5.00;2.53;;;11.70;90.50;;;12.72;43.13;101440.53;4818967;29;97561;-65
2022/04/11 06:29:56;;;;;;;4.90;2.67;;;11.90;90.90;;;12.70;42.30;101434.41;4821917;29;96985;-65
2022/04/11 06:32:31;;;;;;;4.57;2.07;;;12.00;88.80;;;12.87;41.35;101444.44;4819278;29;97804;-65
2022/04/11 06:34:57;;;;;;;4.83;2.10;;;12.20;90.70;;;12.88;40.91;101435.63;4832763;28;97625;-65
2022/04/11 06:37:26;;;;;;;4.00;3.07;;;12.20;89.40;;;12.92;40.74;101441.69;4820304;29;96936;-65
2022/04/11 06:39:53;;;;;;;5.83;2.43;;;12.30;88.20;;;13.04;42.69;101433.34;4819536;29;98219;-65
2022/04/11 06:42:19;;;;;;;3.60;2.03;;;12.40;89.70;;;13.13;40.88;101435.66;4821994;28;97706;-65
2022/04/11 06:44:45;;;;;;;3.87;2.17;;;12.60;88.60;;;13.09;42.12;101436.69;4819036;29;98220;-65
2022/04/11 06:47:11;;;;;;;1.37;1.13;;;12.50;88.90;;;13.17;42.46;101437.31;4822963;28;98482;-65
2022/04/11 06:49:37;;;;;;;4.50;2.10;;;12.60;90.70;;;13.27;42.19;101438.72;4821861;29;97271;-65
2022/04/11 06:52:07;;;;;;;3.93;2.37;;;12.70;88.70;;;13.23;41.53;101437.09;4824427;29;97155;-66
2022/04/11 06:54:33;;;;;;;6.53;3.07;;;12.70;88.10;;;13.27;38.79;101444.03;4818546;29;103197;-65
2022/04/11 06:56:59;;;;;;;2.90;1.70;;;12.90;86.20;;;13.54;41.97;101446.63;4821887;29;96859;-65
2022/04/11 06:59:25;;;;;;;3.33;1.50;;;13.10;91.00;;;13.90;41.36;101442.66;4818457;29;100993;-66
2022/04/11 07:01:54;;;;;;;2.00;1.23;;;13.70;90.10;;;13.98;40.84;101435.28;4824342;29;97407;-66
2022/04/11 07:04:21;;;;;;;4.23;2.30;;;13.90;86.40;;;14.05;40.17;101433.28;4818353;29;97259;-65
2022/04/11 07:06:47;;;;;;;4.90;1.60;;;13.90;84.30;;;14.28;40.43;101435.03;4822519;29;97294;-65
2022/04/11 07:09:14;;;;;;;3.07;1.50;;;14.10;88.10;;;14.41;39.89;101425.66;4815380;29;97484;-65
2022/04/11 07:11:40;;;;;;;1.80;1.50;;;14.40;85.80;;;14.52;39.92;101428.81;4823891;29;97206;-65
2022/04/11 07:14:06;;;;;;;1.80;1.50;;;14.50;86.80;;;14.70;39.43;101429.84;4822767;29;97141;-70
2022/04/11 07:16:32;;;;;;;4.63;2.33;;;14.70;85.80;;;14.84;38.93;101435.47;4819545;28;97089;-65
2022/04/11 07:18:58;;;;;;;2.47;1.60;;;14.90;83.30;;;14.83;38.75;101427.56;4822790;29;121440;-65
2022/04/11 07:21:24;;;;;;;3.13;1.50;;;14.80;83.40;;;14.89;39.01;101436.13;4822280;28;116439;-65
2022/04/11 07:23:50;;;;;;;3.70;2.00;;;14.80;84.70;;;15.00;38.60;101433.03;4822601;29;103245;-65
2022/04/11 07:26:15;;;;;;;3.73;1.53;;;15.00;83.30;;;15.08;38.72;101438.03;4823135;28;98130;-65
2022/04/11 07:28:41;;;;;;;2.73;1.77;;;15.10;82.50;;;15.18;37.72;101428.72;4819858;29;97342;-64
2022/04/11 07:31:07;;;;;;;2.40;1.57;;;15.30;80.90;;;15.20;38.46;101431.34;4821467;29;111904;-68
2022/04/11 07:33:33;;;;;;;2.20;1.47;;;15.30;83.70;;;15.31;38.25;101431.72;4824894;29;125847;-65
2022/04/11 07:35:59;;;;;;;1.97;1.53;;;15.50;83.30;;;15.38;38.27;101430.56;4823811;29;97176;-66
2022/04/11 07:38:25;;;;;;;3.30;1.43;;;15.50;82.90;;;15.47;38.14;101431.00;4818499;29;97050;-66
2022/04/11 07:40:51;;;;;;;2.47;1.30;;;15.70;82.60;;;15.56;38.03;101440.38;4824631;29;97668;-65
2022/04/11 07:43:17;;;;;;;2.57;1.20;;;15.70;82.10;;;15.61;37.61;101433.09;4818417;29;100147;-66
2022/04/11 07:45:43;;;;;;;4.07;2.50;;;15.80;81.90;;;15.59;35.54;101434.06;4827979;29;97044;-65
2022/04/11 07:48:09;;;;;;;3.00;1.63;;;15.80;77.40;;;15.53;37.74;101427.22;4821106;29;97453;-65
2022/04/11 07:50:35;;;;;;;2.73;2.43;;;15.60;79.90;;;15.25;37.15;101421.38;4842765;28;109092;-64
2022/04/11 07:53:01;;;;;;;2.07;1.50;;;15.20;79.90;;;15.35;38.09;101436.88;4835763;28;115274;-65
2022/04/11 07:55:31;;;;;;;1.67;1.40;;;15.30;83.40;;;15.36;38.22;101421.78;4798049;29;96667;-64
2022/04/11 07:57:57;;;;;;;6.20;2.50;;;15.30;81.90;;;15.18;35.08;101426.06;4823270;29;97115;-66
2022/04/11 08:00:23;;;;;;;2.30;1.13;;;15.20;77.10;;;15.15;38.53;101419.09;4824468;29;102320;-64
2022/04/11 08:02:54;;;;;;;4.50;2.60;;;15.00;82.90;;;15.09;38.20;101424.69;4825906;29;98122;-65
2022/04/11 08:05:20;;;;;;;1.60;1.50;;;14.90;82.00;;;15.16;38.60;101426.16;4821116;28;96567;-66
2022/04/11 08:07:47;;;;;;;2.57;1.20;;;15.00;83.70;;;15.27;38.35;101416.84;4826472;29;97356;-65
2022/04/11 08:10:14;;;;;;;1.93;1.63;;;15.30;82.60;;;15.34;37.57;101411.22;4822629;29;97382;-64
2022/04/11 08:12:41;;;;;;;3.73;2.10;;;15.40;80.30;;;15.38;37.64;101404.84;4817191;29;97865;-64
2022/04/11 08:15:08;;;;;;;3.47;1.97;;;15.50;79.50;;;15.38;36.31;101406.63;4825145;28;97513;-67
2022/04/11 08:17:33;;;;;;;2.60;1.50;;;15.40;78.20;;;15.37;38.08;101408.44;4823338;29;97716;-64
2022/04/11 08:20:00;;;;;;;2.07;1.27;;;15.30;81.50;;;15.39;38.15;101405.69;4822977;29;98517;-65
2022/04/11 08:22:28;;;;;;;1.20;1.10;;;15.40;82.20;;;15.36;38.03;101405.84;4806996;29;117238;-65
2022/04/11 08:24:54;;;;;;;2.77;2.20;;;15.40;81.90;;;15.43;36.78;101401.97;4825935;29;96900;-65
2022/04/11 08:27:22;;;;;;;2.03;1.50;;;15.50;79.10;;;15.53;37.88;101407.75;4826368;29;96924;-65
2022/04/11 08:29:48;;;;;;;2.53;1.40;;;15.70;81.10;;;15.59;38.00;101402.16;4821777;29;99356;-66
2022/04/11 08:32:13;;;;;;;3.20;2.10;;;15.80;81.30;;;15.61;37.06;101401.16;4828162;28;97022;-65
2022/04/11 08:34:39;;;;;;;1.87;1.17;;;15.80;77.40;;;15.67;37.64;101400.91;4826203;28;109154;-65
2022/04/11 08:37:05;;;;;;;1.23;1.10;;;15.80;80.60;;;15.72;37.81;101396.25;4827370;28;97706;-65
2022/04/11 08:39:31;;;;;;;3.63;2.23;;;15.90;81.00;;;15.79;37.23;101393.31;4821193;29;103051;-66
2022/04/11 08:42:01;;;;;;;1.63;1.10;;;16.00;79.60;;;15.82;37.47;101398.50;4820944;29;98646;-65
2022/04/11 08:44:28;;;;;;;2.10;1.37;;;16.10;80.70;;;15.83;37.55;101392.25;4825022;28;97627;-65
2022/04/11 08:47:03;;;;;;;2.73;0.93;;;16.10;80.50;;;15.87;37.46;101385.84;4820299;29;97424;-65
2022/04/11 08:49:30;;;;;;;3.27;1.93;;;16.20;80.40;;;15.93;36.64;101390.88;4818874;29;97854;-65
2022/04/11 08:51:57;;;;;;;3.97;2.33;;;16.20;77.10;;;15.86;36.92;101384.97;4824290;29;98864;-65
2022/04/11 08:54:23;;;;;;;3.07;1.60;;;16.00;77.90;;;15.94;37.13;101387.28;4818484;29;97410;-65
2022/04/11 08:56:49;;;;;;;2.13;1.00;;;16.10;78.20;;;15.96;37.17;101388.94;4827243;29;97468;-65
2022/04/11 08:59:16;;;;;;;1.27;1.17;;;16.10;80.90;;;15.95;37.27;101384.56;4804806;29;126813;-66
2022/04/11 09:01:41;;;;;;;1.63;1.10;;;16.20;80.10;;;16.00;37.20;101389.66;4828442;29;96759;-65
2022/04/11 09:04:10;;;;;;;4.37;2.00;;;16.20;80.00;;;15.90;36.85;101375.03;4826787;28;96975;-61
2022/04/11 09:06:36;;;;;;;5.87;1.50;;;16.10;77.90;;;15.28;37.79;101376.06;4826311;29;96795;-54
2022/04/11 09:09:03;;;;;;;4.73;2.10;;;15.70;79.60;;;15.39;34.97;101379.97;4827124;29;97468;-58
2022/04/11 09:11:35;;;;;;;3.80;2.73;;;15.60;75.60;;;15.18;35.47;101365.81;4827874;28;99265;-63
2022/04/11 09:14:06;;;;;;;5.17;2.00;;;15.10;77.30;;;15.19;38.06;101372.03;4823557;29;97409;-56
2022/04/11 09:16:52;;;;;;;5.53;2.20;;;15.10;81.20;;;15.17;35.80;101364.09;4831012;29;96994;-59
2022/04/11 09:19:27;;;;;;;3.27;1.93;;;15.30;80.00;;;15.26;37.55;101365.50;4817975;29;100445;-56
2022/04/11 09:21:57;;;;;;;5.93;2.83;;;15.40;79.00;;;15.04;33.80;101365.53;4826722;29;97680;-56
2022/04/11 09:24:26;;;;;;;3.23;1.77;;;15.10;74.10;;;15.11;38.27;101359.06;4822515;29;100182;-60
2022/04/11 09:26:56;;;;;;;9.43;2.33;;;15.10;80.60;;;15.07;35.02;101362.78;4827091;29;97008;-49
2022/04/11 09:29:26;;;;;;;2.77;1.57;;;15.10;76.30;;;15.26;38.40;101364.63;4831634;28;97113;-55
2022/04/11 09:31:53;;;;;;;3.63;2.17;;;15.30;81.90;;;15.38;35.80;101361.44;4818832;29;96764;-59
2022/04/11 09:34:28;;;;;;;2.73;1.63;;;15.50;77.30;;;15.50;37.37;101352.91;4821877;28;97614;-58
2022/04/11 09:37:00;;;;;;;2.87;1.50;;;15.60;78.90;;;15.62;36.98;101349.75;4823932;29;97043;-59
2022/04/11 09:39:36;;;;;;;3.20;1.47;;;15.80;78.40;;;15.68;37.37;101346.78;4825285;28;97433;-58
2022/04/11 09:42:04;;;;;;;2.40;1.40;;;15.90;80.00;;;15.75;36.99;101345.56;4824962;29;97027;-58
2022/04/11 09:44:33;;;;;;;3.60;2.47;;;16.00;78.10;;;15.75;33.52;101337.56;4822470;29;96959;-57
2022/04/11 09:47:05;;;;;;;4.00;2.07;;;16.00;72.70;;;15.88;36.71;101337.00;4825283;29;97232;-58
2022/04/11 09:49:33;;;;;;;2.60;1.30;;;16.00;77.40;;;15.87;37.31;101335.28;4820997;29;100539;-58
2022/04/11 09:52:06;;;;;;;3.50;1.47;;;16.00;79.30;;;15.90;37.26;101335.13;4823312;29;98282;-55
2022/04/11 09:54:33;;;;;;;2.70;1.47;;;16.10;78.70;;;15.87;37.03;101335.28;4820048;29;97165;-58
2022/04/11 09:57:01;;;;;;;3.47;1.63;;;16.20;78.20;;;15.97;35.97;101333.94;4825731;29;97251;-58
2022/04/11 09:59:27;;;;;;;1.70;1.30;;;16.20;76.20;;;15.97;36.64;101339.25;4818964;29;104596;-58
2022/04/11 10:01:56;;;;;;;3.00;2.20;;;16.30;77.80;;;16.04;34.13;101335.34;4826286;29;97160;-57
2022/04/11 10:04:22;;;;;;;2.97;1.60;;;16.30;73.00;;;16.05;34.43;101332.59;4817960;29;98563;-58
2022/04/11 10:06:49;;;;;;;4.23;1.20;;;16.20;74.60;;;16.00;36.82;101328.44;4826500;28;97053;-54
2022/04/11 10:09:16;;;;;;;2.83;1.47;;;16.30;78.40;;;16.06;34.56;101333.50;4818723;29;97180;-58
2022/04/11 10:11:54;;;;;;;2.80;1.30;;;16.30;74.30;;;16.09;36.88;101333.34;4810471;28;97380;-58
2022/04/11 10:14:26;;;;;;;2.00;1.17;;;16.30;78.90;;;16.11;33.72;101328.81;4797530;29;97176;-59